Terminal Aerodrome Forecast
Issued by NWS Binghamton, NY

Home | Current Version | Previous Version | Text Only | Print | Product List | Glossary On
Versions: 1 2 3 4 5 6 7 8 9 10 11 12 13 14 15
000
FTUS41 KBGM 071140
TAFSYR
TAF
KSYR 071140Z 0712/0812 14007KT P6SM SCT040 BKN080
     FM071500 22007KT P6SM SCT040 BKN200
     FM080300 23009KT 4SM -SHRA BR OVC025
     FM080700 29010KT 5SM -SHRA OVC018=

USA.gov is the U.S. government's official web portal to all federal, state and local government web resources and services.